Nokomis, IL (62075)

5:48 AM CST on February 10, 2016 (GMT -0600)
N.W side of town | | Change Station
CLOSE
Current Station
Personal Weather Station
Location: Raymond, IL
Elevation: 640 ft
Nearby Weather Stations

Elev 640 ft 39.32 °N, 89.58 °W | Updated 19 seconds ago

Clear
Clear
9.3 °F
Feels Like 2 °F
N
4.2
Wind Variable Wind from WSW

Today
High -- | Low -- °F
--% Chance of Precip.
Yesterday
High -- | Low -- °F
Precip. -- in
Pressure 30.11 in
Visibility 10.0 miles
Clouds Clear
Windchill 2 °F
Dew Point 5 °F
Humidity 82%
Rainfall 0.00 in
Snow Depth Not available.
6:55 AM 5:27 PM
Waxing Crescent, 5% visible
METAR KTAZ 101135Z AUTO 28009KT 10SM CLR M12/M15 A3011 RMK AO2
Pressure 30.11 in
Visibility 10.0 miles
Clouds Clear
Windchill 2 °F
Dew Point 5 °F
Humidity 82%
Rainfall 0.00 in
Snow Depth Not available.
6:55 AM 5:27 PM
Waxing Crescent, 5% visible
METAR KTAZ 101135Z AUTO 28009KT 10SM CLR M12/M15 A3011 RMK AO2

10-Day Weather Forecast

Almanac

Astronomy

Feb. 10, 2016 Rise Set
Actual Time
Civil Twilight
Nautical Twilight
Astronomical Twilight
Moon
Length of Visible Light
Length of Day
Tomorrow will be .
, % of the Moon is Illuminated

Today's Extremes

State Highs State Lows

Community

WunderPhotos

Upload Photos

1,891,830 photos uploaded!

WunderBlog® & News

Nearby

Air Quality

  Air Quality AQ Index Pollutant
Not available.

Snow Depth

Station Depth Elevation

Earthquake Activity

City Distance Mag. Time & Date
Minimum magnitude displayed is 2.5.

Coastal Water Temperatures

Place Temperature

Stations

Nearby Weather Stations

Station Location Temp. Windchill Dew Point Humidity Wind Precip. Elev Updated Type
                   

Watches & Warnings

There are currently no watches in effect.